Nashville, TN

9:42 AM CDT on March 30, 2015 (GMT -0500)
Nashville International | | Change Station
CLOSE
Current Station
Airport
Location: Nashville,
Elevation: 597 ft
Nearby Weather Stations
Active Advisory: Special Statement

Elev 597 ft 36.12 °N, 86.69 °W | Updated 49 minutes ago

Clear
Clear
55 °F
Feels Like 55 °F
N
6
Wind Variable Wind from NW

Today
High -- | Low -- °F
--% Chance of Precip.
Yesterday
High -- | Low -- °F
Precip. -- in
6:36 AM 7:07 PM
Waxing Gibbous, 80% visible
Pressure 30.20 in
Visibility 10.0 miles
Clouds Clear
Dew Point 44 °F
Humidity 67%
Rainfall 0.03 in
Snow Depth Not available.
UV 2 out of 12
Pollen 8.50 out of 12
Air Quality Not available.
Flu Activity Not available.
METAR KBNA 301353Z 32005KT 10SM CLR 13/07 A3020 RMK AO2 SLP225 T01280067

More Conditions Fewer Conditions

Pressure 30.20 in
Visibility 10.0 miles
Clouds Clear
Dew Point 44 °F
Humidity 67%
Rainfall 0.03 in
Snow Depth Not available.
UV 2 out of 12
Pollen 8.50 out of 12
Air Quality Not available.
Flu Activity Not available.
METAR KBNA 301353Z 32005KT 10SM CLR 13/07 A3020 RMK AO2 SLP225 T01280067

More Conditions Fewer Conditions

10-Day Weather Forecast

Almanac

Astronomy

Mar. 30, 2015 Rise Set
Actual Time
Civil Twilight
Nautical Twilight
Astronomical Twilight
Moon
Length of Visible Light
Length of Day
Tomorrow will be .
, % of the Moon is Illuminated

Today's Extremes

State Highs State Lows

Community

WunderPhotos

Upload Photos

1,809,509 photos uploaded!

WunderBlogs® & News

Nearby

Air Quality

  Air Quality AQ Index Pollutant
Not available.

Snow Depth

Station Depth Elevation

Earthquake Activity

City Distance Mag. Time & Date
Minimum magnitude displayed is 2.5.

Coastal Water Temperatures

Place Temperature

Stations

Nearby Weather Stations

Station Location Temp. Windchill Dew Point Humidity Wind Precip. Elev Updated Type
                   
Special Statement
Statement as of 7:04 AM CDT on March 30, 2015

... Localized patchy dense fog forming across middle Tennessee this morning...

Locally patchy dense fog has formed across middle Tennessee this morning.
This patchy dense fog may limit visibilities in some locations to less
than one quarter of a mile. Please exercise caution while driving on
area roadways this morning. This fog should begin to burn off after
9 am CDT.

31